SHT22A EGLL-EGJB
Flight info
| Callsign | SHT22A |
|---|---|
| Flight time | 0h 35m |
| Altitude | 20000 |
| Route | GASGU N866 SAM N63 LELNA |
| Aircraft | A319/M-SDE3FGHIRWY/LB1 |
Departure
| Time | 2026-04-23 06:49 |
|---|---|
| Airport | London Heathrow Airport (EGLL) |
Arrival
| Time | 2026-04-23 07:25 |
|---|---|
| Airport | Guernsey Airport (EGJB) |
| Time | Latitude | Longitude | Altitude | Speed | Heading |
|---|---|---|---|---|---|
| 2026-04-23 06:15 | 51.46932 | -0.48715 | 89 ft | 0 kts | 359° |
| 2026-04-23 06:40 | 51.46919 | -0.48715 | 90 ft | 4 kts | 359° |
| 2026-04-23 06:40 | 51.46896 | -0.48715 | 88 ft | 3 kts | 0° |
| 2026-04-23 06:40 | 51.46879 | -0.48723 | 89 ft | 4 kts | 74° |
| 2026-04-23 06:41 | 51.46876 | -0.48762 | 87 ft | 4 kts | 89° |
| 2026-04-23 06:41 | 51.46876 | -0.48793 | 86 ft | 0 kts | 89° |
| 2026-04-23 06:44 | 51.46876 | -0.48782 | 90 ft | 2 kts | 95° |
| 2026-04-23 06:44 | 51.46857 | -0.48754 | 86 ft | 5 kts | 163° |
| 2026-04-23 06:45 | 51.46811 | -0.48749 | 86 ft | 8 kts | 179° |
| 2026-04-23 06:45 | 51.46743 | -0.48748 | 86 ft | 11 kts | 180° |
| 2026-04-23 06:45 | 51.46696 | -0.48748 | 86 ft | 11 kts | 180° |
| 2026-04-23 06:45 | 51.46634 | -0.48750 | 86 ft | 9 kts | 186° |
| 2026-04-23 06:46 | 51.46602 | -0.48767 | 90 ft | 0 kts | 199° |
| 2026-04-23 06:47 | 51.46589 | -0.48773 | 88 ft | 7 kts | 199° |
| 2026-04-23 06:47 | 51.46526 | -0.48784 | 89 ft | 12 kts | 165° |
| 2026-04-23 06:47 | 51.46478 | -0.48675 | 86 ft | 14 kts | 93° |
| 2026-04-23 06:48 | 51.46479 | -0.48637 | 86 ft | 0 kts | 89° |
| 2026-04-23 06:49 | 51.46480 | -0.48423 | 87 ft | 53 kts | 90° |
| 2026-04-23 06:49 | 51.46482 | -0.47482 | 86 ft | 114 kts | 89° |
| 2026-04-23 06:49 | 51.46486 | -0.45934 | 178 ft | 155 kts | 89° |
| 2026-04-23 06:49 | 51.46486 | -0.44208 | 785 ft | 156 kts | 88° |
| 2026-04-23 06:50 | 51.46497 | -0.42447 | 1423 ft | 164 kts | 90° |
| 2026-04-23 06:50 | 51.46079 | -0.40619 | 1705 ft | 193 kts | 125° |
| 2026-04-23 06:50 | 51.45193 | -0.38845 | 2083 ft | 218 kts | 124° |
| 2026-04-23 06:50 | 51.44282 | -0.36742 | 2694 ft | 236 kts | 123° |
| 2026-04-23 06:51 | 51.43257 | -0.34634 | 3638 ft | 243 kts | 134° |
| 2026-04-23 06:51 | 51.41827 | -0.33122 | 4576 ft | 253 kts | 155° |
| 2026-04-23 06:51 | 51.40072 | -0.32713 | 5527 ft | 264 kts | 181° |
| 2026-04-23 06:51 | 51.38290 | -0.33603 | 6504 ft | 275 kts | 206° |
| 2026-04-23 06:52 | 51.36776 | -0.35532 | 7454 ft | 281 kts | 219° |
| 2026-04-23 06:52 | 51.35328 | -0.37645 | 8421 ft | 283 kts | 219° |
| 2026-04-23 06:52 | 51.33860 | -0.39799 | 9327 ft | 287 kts | 219° |
| 2026-04-23 06:52 | 51.32377 | -0.41979 | 10196 ft | 292 kts | 220° |
| 2026-04-23 06:53 | 51.30967 | -0.44366 | 10976 ft | 300 kts | 232° |
| 2026-04-23 06:53 | 51.30021 | -0.47323 | 11748 ft | 308 kts | 250° |
| 2026-04-23 06:53 | 51.29406 | -0.50678 | 12427 ft | 315 kts | 253° |
| 2026-04-23 06:53 | 51.28806 | -0.54053 | 13333 ft | 316 kts | 253° |
| 2026-04-23 06:54 | 51.28192 | -0.57484 | 13898 ft | 330 kts | 252° |
| 2026-04-23 06:54 | 51.27513 | -0.61119 | 14122 ft | 352 kts | 252° |
| 2026-04-23 06:54 | 51.26777 | -0.64920 | 14618 ft | 362 kts | 251° |
| 2026-04-23 06:54 | 51.26019 | -0.68778 | 15258 ft | 366 kts | 251° |
| 2026-04-23 06:55 | 51.25250 | -0.72680 | 15930 ft | 370 kts | 252° |
| 2026-04-23 06:55 | 51.24475 | -0.76615 | 16600 ft | 373 kts | 252° |
| 2026-04-23 06:55 | 51.23692 | -0.80584 | 17275 ft | 377 kts | 252° |
| 2026-04-23 06:55 | 51.22901 | -0.84588 | 17940 ft | 380 kts | 252° |
| 2026-04-23 06:56 | 51.22105 | -0.88633 | 18618 ft | 384 kts | 252° |
| 2026-04-23 06:56 | 51.21224 | -0.92667 | 19204 ft | 387 kts | 246° |
| 2026-04-23 06:56 | 51.19921 | -0.96449 | 19776 ft | 391 kts | 236° |
| 2026-04-23 06:56 | 51.18198 | -0.99829 | 20267 ft | 395 kts | 225° |
| 2026-04-23 06:57 | 51.16236 | -1.02881 | 20411 ft | 390 kts | 224° |
| 2026-04-23 06:57 | 51.14293 | -1.05856 | 20437 ft | 386 kts | 224° |
| 2026-04-23 06:57 | 51.12358 | -1.08811 | 20432 ft | 385 kts | 224° |
| 2026-04-23 06:57 | 51.10424 | -1.11767 | 20431 ft | 384 kts | 224° |
| 2026-04-23 06:58 | 51.08500 | -1.14709 | 20409 ft | 384 kts | 224° |
| 2026-04-23 06:58 | 51.06571 | -1.17661 | 20409 ft | 385 kts | 224° |
| 2026-04-23 06:58 | 51.04643 | -1.20609 | 20411 ft | 384 kts | 224° |
| 2026-04-23 06:58 | 51.02738 | -1.23516 | 20409 ft | 384 kts | 224° |
| 2026-04-23 06:59 | 51.00808 | -1.26459 | 20408 ft | 385 kts | 224° |
| 2026-04-23 06:59 | 50.98872 | -1.29409 | 20412 ft | 386 kts | 224° |
| 2026-04-23 06:59 | 50.96937 | -1.32350 | 20419 ft | 385 kts | 223° |
| 2026-04-23 06:59 | 50.94823 | -1.34958 | 20420 ft | 385 kts | 212° |
| 2026-04-23 07:00 | 50.92471 | -1.36974 | 20415 ft | 385 kts | 206° |
| 2026-04-23 07:00 | 50.90076 | -1.38871 | 20419 ft | 385 kts | 206° |
| 2026-04-23 07:00 | 50.87686 | -1.40765 | 20419 ft | 384 kts | 206° |
| 2026-04-23 07:00 | 50.85297 | -1.42666 | 20418 ft | 385 kts | 206° |
| 2026-04-23 07:01 | 50.82908 | -1.44571 | 20424 ft | 384 kts | 206° |
| 2026-04-23 07:01 | 50.80527 | -1.46472 | 20427 ft | 383 kts | 206° |
| 2026-04-23 07:01 | 50.78148 | -1.48369 | 20424 ft | 383 kts | 206° |
| 2026-04-23 07:01 | 50.75767 | -1.50260 | 20416 ft | 383 kts | 206° |
| 2026-04-23 07:02 | 50.73388 | -1.52141 | 20416 ft | 382 kts | 206° |
| 2026-04-23 07:02 | 50.71010 | -1.54022 | 20416 ft | 382 kts | 206° |
| 2026-04-23 07:02 | 50.68636 | -1.55900 | 20412 ft | 382 kts | 206° |
| 2026-04-23 07:02 | 50.66263 | -1.57778 | 20407 ft | 382 kts | 206° |
| 2026-04-23 07:03 | 50.63886 | -1.59658 | 20408 ft | 381 kts | 206° |
| 2026-04-23 07:03 | 50.61514 | -1.61531 | 20393 ft | 382 kts | 206° |
| 2026-04-23 07:03 | 50.59131 | -1.63412 | 20381 ft | 383 kts | 206° |
| 2026-04-23 07:03 | 50.56751 | -1.65285 | 20371 ft | 383 kts | 206° |
| 2026-04-23 07:04 | 50.54371 | -1.67156 | 20370 ft | 383 kts | 206° |
| 2026-04-23 07:04 | 50.51983 | -1.69027 | 20363 ft | 383 kts | 205° |
| 2026-04-23 07:04 | 50.49597 | -1.70898 | 20354 ft | 384 kts | 206° |
| 2026-04-23 07:04 | 50.47207 | -1.72772 | 20368 ft | 383 kts | 206° |
| 2026-04-23 07:05 | 50.44818 | -1.74639 | 20365 ft | 384 kts | 205° |
| 2026-04-23 07:05 | 50.42428 | -1.76506 | 20362 ft | 384 kts | 206° |
| 2026-04-23 07:05 | 50.40039 | -1.78374 | 20363 ft | 384 kts | 206° |
| 2026-04-23 07:05 | 50.37678 | -1.80217 | 20366 ft | 384 kts | 206° |
| 2026-04-23 07:06 | 50.35254 | -1.82103 | 20357 ft | 385 kts | 206° |
| 2026-04-23 07:06 | 50.32852 | -1.83975 | 20356 ft | 385 kts | 206° |
| 2026-04-23 07:06 | 50.30481 | -1.85819 | 20351 ft | 385 kts | 206° |
| 2026-04-23 07:06 | 50.28085 | -1.87676 | 20355 ft | 384 kts | 206° |
| 2026-04-23 07:07 | 50.25684 | -1.89529 | 20354 ft | 385 kts | 206° |
| 2026-04-23 07:07 | 50.23286 | -1.91382 | 20362 ft | 385 kts | 206° |
| 2026-04-23 07:07 | 50.20888 | -1.93237 | 20358 ft | 384 kts | 206° |
| 2026-04-23 07:07 | 50.18489 | -1.95091 | 20359 ft | 384 kts | 206° |
| 2026-04-23 07:08 | 50.16089 | -1.96942 | 20314 ft | 382 kts | 206° |
| 2026-04-23 07:08 | 50.13738 | -1.98753 | 20067 ft | 373 kts | 206° |
| 2026-04-23 07:08 | 50.11430 | -2.00533 | 19819 ft | 368 kts | 206° |
| 2026-04-23 07:08 | 50.09135 | -2.02306 | 19573 ft | 367 kts | 206° |
| 2026-04-23 07:09 | 50.06865 | -2.04057 | 19270 ft | 361 kts | 206° |
| 2026-04-23 07:09 | 50.04614 | -2.05783 | 18824 ft | 360 kts | 206° |
| 2026-04-23 07:09 | 50.02371 | -2.07492 | 18338 ft | 358 kts | 205° |
| 2026-04-23 07:09 | 50.00144 | -2.09195 | 17882 ft | 355 kts | 206° |
| 2026-04-23 07:10 | 49.98083 | -2.11274 | 17439 ft | 352 kts | 219° |
| 2026-04-23 07:10 | 49.96360 | -2.13959 | 16997 ft | 350 kts | 227° |
| 2026-04-23 07:10 | 49.94757 | -2.16794 | 16558 ft | 348 kts | 226° |
| 2026-04-23 07:10 | 49.93158 | -2.19597 | 16116 ft | 346 kts | 226° |
| 2026-04-23 07:11 | 49.91568 | -2.22377 | 15684 ft | 343 kts | 226° |
| 2026-04-23 07:11 | 49.89982 | -2.25137 | 15250 ft | 341 kts | 225° |
| 2026-04-23 07:11 | 49.88405 | -2.27873 | 14825 ft | 339 kts | 225° |
| 2026-04-23 07:12 | 49.85286 | -2.33301 | 13943 ft | 335 kts | 225° |
| 2026-04-23 07:12 | 49.83743 | -2.35980 | 13505 ft | 332 kts | 224° |
| 2026-04-23 07:12 | 49.82215 | -2.38629 | 13085 ft | 328 kts | 224° |
| 2026-04-23 07:12 | 49.80694 | -2.41264 | 12410 ft | 332 kts | 224° |
| 2026-04-23 07:13 | 49.79130 | -2.43987 | 11508 ft | 343 kts | 224° |
| 2026-04-23 07:13 | 49.77549 | -2.46757 | 10887 ft | 337 kts | 224° |
| 2026-04-23 07:13 | 49.76085 | -2.49356 | 10755 ft | 313 kts | 224° |
| 2026-04-23 07:13 | 49.74697 | -2.51849 | 10533 ft | 302 kts | 224° |
| 2026-04-23 07:14 | 49.73338 | -2.54300 | 10244 ft | 298 kts | 224° |
| 2026-04-23 07:14 | 49.71982 | -2.56756 | 9927 ft | 295 kts | 224° |
| 2026-04-23 07:14 | 49.70654 | -2.59168 | 9612 ft | 294 kts | 224° |
| 2026-04-23 07:14 | 49.69351 | -2.61544 | 9294 ft | 293 kts | 224° |
| 2026-04-23 07:15 | 49.68035 | -2.63947 | 8986 ft | 292 kts | 224° |
| 2026-04-23 07:15 | 49.66724 | -2.66343 | 8677 ft | 292 kts | 224° |
| 2026-04-23 07:15 | 49.65419 | -2.68730 | 8372 ft | 291 kts | 224° |
| 2026-04-23 07:15 | 49.64120 | -2.71116 | 8087 ft | 290 kts | 224° |
| 2026-04-23 07:16 | 49.62827 | -2.73488 | 7793 ft | 288 kts | 224° |
| 2026-04-23 07:16 | 49.61520 | -2.75882 | 7491 ft | 287 kts | 224° |
| 2026-04-23 07:16 | 49.60237 | -2.78245 | 7203 ft | 287 kts | 224° |
| 2026-04-23 07:16 | 49.58981 | -2.80570 | 6917 ft | 286 kts | 224° |
| 2026-04-23 07:17 | 49.57709 | -2.82922 | 6619 ft | 285 kts | 224° |
| 2026-04-23 07:17 | 49.56443 | -2.85272 | 6311 ft | 285 kts | 224° |
| 2026-04-23 07:17 | 49.55181 | -2.87611 | 6004 ft | 283 kts | 224° |
| 2026-04-23 07:17 | 49.53943 | -2.89920 | 5698 ft | 274 kts | 224° |
| 2026-04-23 07:18 | 49.52760 | -2.92142 | 5394 ft | 264 kts | 224° |
| 2026-04-23 07:18 | 49.51624 | -2.94285 | 5095 ft | 254 kts | 224° |
| 2026-04-23 07:18 | 49.50533 | -2.96351 | 4787 ft | 244 kts | 224° |
| 2026-04-23 07:18 | 49.49304 | -2.98000 | 4480 ft | 227 kts | 200° |
| 2026-04-23 07:19 | 49.47882 | -2.98736 | 4194 ft | 209 kts | 181° |
| 2026-04-23 07:19 | 49.46467 | -2.98741 | 3889 ft | 199 kts | 164° |
| 2026-04-23 07:19 | 49.45175 | -2.98128 | 3598 ft | 192 kts | 149° |
| 2026-04-23 07:19 | 49.44099 | -2.97016 | 3359 ft | 184 kts | 135° |
| 2026-04-23 07:20 | 49.43281 | -2.95515 | 3104 ft | 181 kts | 120° |
| 2026-04-23 07:20 | 49.42763 | -2.93718 | 3024 ft | 185 kts | 106° |
| 2026-04-23 07:20 | 49.42579 | -2.91769 | 3004 ft | 186 kts | 92° |
| 2026-04-23 07:20 | 49.42633 | -2.89777 | 3002 ft | 186 kts | 90° |
| 2026-04-23 07:21 | 49.42694 | -2.87790 | 3008 ft | 187 kts | 90° |
| 2026-04-23 07:21 | 49.42754 | -2.85798 | 3004 ft | 186 kts | 90° |
| 2026-04-23 07:21 | 49.42814 | -2.83823 | 2997 ft | 180 kts | 90° |
| 2026-04-23 07:21 | 49.42869 | -2.81980 | 2914 ft | 171 kts | 90° |
| 2026-04-23 07:22 | 49.42922 | -2.80175 | 2792 ft | 168 kts | 90° |
| 2026-04-23 07:22 | 49.42974 | -2.78415 | 2540 ft | 165 kts | 90° |
| 2026-04-23 07:22 | 49.43026 | -2.76642 | 2316 ft | 164 kts | 90° |
| 2026-04-23 07:22 | 49.43077 | -2.74900 | 2098 ft | 163 kts | 91° |
| 2026-04-23 07:23 | 49.43126 | -2.73181 | 1877 ft | 163 kts | 91° |
| 2026-04-23 07:23 | 49.43177 | -2.71444 | 1655 ft | 162 kts | 90° |
| 2026-04-23 07:23 | 49.43226 | -2.69722 | 1435 ft | 160 kts | 90° |
| 2026-04-23 07:23 | 49.43275 | -2.68024 | 1216 ft | 158 kts | 89° |
| 2026-04-23 07:24 | 49.43322 | -2.66386 | 993 ft | 146 kts | 88° |
| 2026-04-23 07:24 | 49.43363 | -2.64948 | 801 ft | 126 kts | 88° |
| 2026-04-23 07:24 | 49.43399 | -2.63645 | 639 ft | 119 kts | 87° |
| 2026-04-23 07:24 | 49.43435 | -2.62389 | 463 ft | 116 kts | 86° |
| 2026-04-23 07:25 | 49.43472 | -2.61159 | 320 ft | 114 kts | 86° |
| 2026-04-23 07:25 | 49.43498 | -2.60211 | 334 ft | 49 kts | 87° |
| 2026-04-23 07:25 | 49.43504 | -2.59999 | 345 ft | 21 kts | 87° |
| 2026-04-23 07:25 | 49.43499 | -2.59888 | 344 ft | 8 kts | 118° |
| 2026-04-23 07:26 | 49.43463 | -2.59864 | 344 ft | 10 kts | 179° |
| 2026-04-23 07:26 | 49.43408 | -2.59861 | 344 ft | 7 kts | 177° |
| 2026-04-23 07:26 | 49.43375 | -2.59858 | 344 ft | 1 kts | 177° |
| 2026-04-23 07:26 | 49.43362 | -2.59855 | 350 ft | 3 kts | 164° |
| 2026-04-23 07:27 | 49.43347 | -2.59818 | 347 ft | 5 kts | 100° |
| 2026-04-23 07:27 | 49.43354 | -2.59755 | 354 ft | 6 kts | 77° |
| 2026-04-23 07:27 | 49.43360 | -2.59707 | 347 ft | 5 kts | 90° |
| 2026-04-23 07:27 | 49.43338 | -2.59691 | 344 ft | 1 kts | 183° |
| 2026-04-23 07:28 | 49.43323 | -2.59692 | 344 ft | 4 kts | 179° |
| 2026-04-23 07:28 | 49.43293 | -2.59689 | 344 ft | 3 kts | 177° |
| 2026-04-23 07:28 | 49.43266 | -2.59688 | 344 ft | 2 kts | 178° |
| 2026-04-23 07:28 | 49.43257 | -2.59688 | 344 ft | 1 kts | 178° |
| 2026-04-23 07:29 | 49.43255 | -2.59688 | 344 ft | 0 kts | 178° |